createdAt,value
2022-08-05T00:00:10.916Z,54.77
2022-08-05T00:02:49.131Z,54.79
2022-08-05T00:06:01.839Z,52.72
2022-08-05T00:08:00.825Z,54.68
2022-08-05T00:10:27.259Z,54.86
2022-08-05T00:12:59.212Z,55.22
2022-08-05T00:15:55.249Z,54.96
2022-08-05T00:18:05.699Z,55.15
2022-08-05T00:20:39.078Z,55.31
2022-08-05T00:23:13.295Z,55.10
2022-08-05T00:25:46.393Z,55.31
2022-08-05T00:28:21.116Z,55.13
2022-08-05T00:30:53.702Z,55.15
2022-08-05T00:34:55.425Z,55.07
2022-08-05T00:36:16.517Z,55.06
2022-08-05T00:38:34.362Z,54.95
2022-08-05T00:41:11.666Z,55.03
2022-08-05T00:43:49.588Z,55.22
2022-08-05T00:46:16.336Z,54.94
2022-08-05T00:48:51.405Z,54.99
2022-08-05T00:51:51.515Z,55.27
2022-08-05T00:54:02.489Z,55.13
2022-08-05T00:56:32.206Z,55.01
2022-08-05T00:59:06.881Z,55.61
2022-08-05T01:01:48.048Z,55.51
2022-08-05T01:04:14.092Z,54.24
2022-08-05T01:06:48.493Z,55.29
2022-08-05T01:09:19.966Z,55.32
2022-08-05T01:11:55.510Z,55.58
2022-08-05T01:14:40.053Z,55.55
2022-08-05T01:17:25.711Z,55.76
2022-08-05T01:20:07.110Z,55.80
2022-08-05T01:22:54.183Z,55.78
2022-08-05T01:25:52.390Z,56.26
2022-08-05T01:28:37.428Z,56.05
2022-08-05T01:31:17.167Z,56.29
2022-08-05T01:34:04.582Z,56.55
2022-08-05T01:36:42.294Z,56.64
2022-08-05T01:39:15.941Z,56.88
2022-08-05T01:41:52.656Z,57.02
2022-08-05T01:44:34.513Z,57.36
2022-08-05T01:47:05.210Z,57.39
2022-08-05T01:50:01.907Z,57.54
2022-08-05T01:52:17.437Z,57.99
2022-08-05T01:54:52.757Z,57.86
2022-08-05T01:58:10.630Z,58.31
2022-08-05T02:00:11.923Z,58.05
2022-08-05T02:02:55.128Z,57.99
2022-08-05T02:05:30.729Z,58.11
2022-08-05T02:08:05.290Z,58.07
2022-08-05T02:10:58.695Z,58.16
2022-08-05T02:13:53.111Z,58.12
2022-08-05T02:16:32.379Z,58.13
2022-08-05T02:19:11.032Z,58.07
2022-08-05T02:21:46.637Z,58.17
2022-08-05T02:24:23.198Z,58.01
2022-08-05T02:27:09.990Z,57.89
2022-08-05T02:29:58.937Z,57.60
2022-08-05T02:32:12.904Z,57.38
2022-08-05T02:34:54.675Z,57.09
2022-08-05T02:37:22.542Z,57.01
2022-08-05T02:39:56.604Z,56.84
2022-08-05T02:42:34.322Z,56.57
2022-08-05T02:45:04.658Z,56.51
2022-08-05T02:48:06.428Z,56.54
2022-08-05T02:50:13.958Z,56.20
2022-08-05T02:52:49.257Z,56.10
2022-08-05T02:55:55.332Z,56.03
2022-08-05T02:58:20.087Z,56.04
2022-08-05T03:00:30.640Z,54.67
2022-08-05T03:03:10.310Z,55.67
2022-08-05T03:06:55.387Z,55.58
2022-08-05T03:08:16.673Z,55.64
2022-08-05T03:11:02.341Z,55.76
2022-08-05T03:13:27.683Z,55.64
2022-08-05T03:15:58.210Z,54.28
2022-08-05T03:18:30.821Z,55.22
2022-08-05T03:21:03.031Z,55.12
2022-08-05T03:23:36.755Z,54.82
2022-08-05T03:26:30.193Z,54.82
2022-08-05T03:28:45.778Z,54.29
2022-08-05T03:31:55.435Z,54.30
2022-08-05T03:33:53.692Z,53.97
2022-08-05T03:36:30.621Z,53.83
2022-08-05T03:39:13.123Z,53.61
2022-08-05T03:41:46.696Z,53.40
2022-08-05T03:44:19.738Z,53.33
2022-08-05T03:46:52.085Z,53.13
2022-08-05T03:49:31.260Z,53.02
2022-08-05T03:52:48.332Z,53.05
2022-08-05T03:55:33.980Z,52.86
2022-08-05T03:57:28.997Z,52.56
2022-08-05T04:00:03.520Z,52.45
2022-08-05T04:02:52.207Z,52.55
2022-08-05T04:05:15.966Z,52.39
2022-08-05T04:07:57.232Z,52.46
2022-08-05T04:10:22.393Z,52.25
2022-08-05T04:12:54.309Z,51.66
2022-08-05T04:15:33.385Z,51.68
2022-08-05T04:18:09.406Z,51.53
2022-08-05T04:20:41.541Z,51.31
2022-08-05T04:23:16.319Z,50.78
2022-08-05T04:26:00.589Z,50.53
2022-08-05T04:28:30.937Z,50.13
2022-08-05T04:31:01.098Z,49.93
2022-08-05T04:34:17.343Z,49.74
2022-08-05T04:36:15.683Z,49.56
2022-08-05T04:38:51.005Z,49.37
2022-08-05T04:41:34.153Z,49.05
2022-08-05T04:43:57.456Z,48.90
2022-08-05T04:46:30.552Z,49.01
2022-08-05T04:49:03.480Z,48.91
2022-08-05T04:51:36.135Z,48.79
2022-08-05T04:54:09.826Z,48.58
2022-08-05T04:56:43.652Z,48.46
2022-08-05T04:59:33.529Z,48.32
2022-08-05T05:02:08.031Z,48.17
2022-08-05T05:04:25.640Z,47.81
2022-08-05T05:06:57.948Z,48.32
2022-08-05T05:09:30.223Z,47.45
2022-08-05T05:12:04.743Z,47.56
2022-08-05T05:14:38.545Z,46.91
2022-08-05T05:17:13.177Z,46.72
2022-08-05T05:19:47.536Z,46.28
2022-08-05T05:22:23.965Z,46.33
2022-08-05T05:24:58.814Z,46.09
2022-08-05T05:27:44.969Z,45.30
2022-08-05T05:30:28.667Z,45.50
2022-08-05T05:32:44.235Z,45.02
2022-08-05T05:35:19.777Z,44.46
2022-08-05T05:37:59.856Z,44.08
2022-08-05T05:40:29.925Z,43.97
2022-08-05T05:43:03.026Z,43.81
2022-08-05T05:45:35.634Z,43.53
2022-08-05T05:48:08.920Z,43.14
2022-08-05T05:50:44.361Z,42.50
2022-08-05T05:53:22.007Z,42.58
2022-08-05T05:55:51.606Z,41.70
2022-08-05T05:58:31.403Z,41.19
2022-08-05T06:01:12.327Z,40.27
2022-08-05T06:03:53.898Z,40.04
2022-08-05T06:06:07.051Z,41.03
2022-08-05T06:08:39.746Z,39.39
2022-08-05T06:11:11.922Z,38.39
2022-08-05T06:13:50.582Z,38.58
2022-08-05T06:16:30.903Z,38.09
2022-08-05T06:18:54.362Z,37.53
2022-08-05T06:21:35.917Z,38.10
2022-08-05T06:24:02.126Z,37.50
2022-08-05T06:26:35.164Z,37.04
2022-08-05T06:29:42.789Z,36.57
2022-08-05T06:31:42.606Z,36.26
2022-08-05T06:34:15.128Z,36.05
2022-08-05T06:36:56.882Z,36.51
2022-08-05T06:39:27.338Z,36.59
2022-08-05T06:42:04.077Z,36.48
2022-08-05T06:44:36.610Z,36.65
2022-08-05T06:47:30.016Z,36.65
2022-08-05T06:50:00.058Z,36.48
2022-08-05T06:52:36.570Z,36.58
2022-08-05T06:54:54.365Z,37.08
2022-08-05T06:58:03.376Z,36.99
2022-08-05T07:00:03.107Z,36.91
2022-08-05T07:02:47.727Z,37.17
2022-08-05T07:05:27.672Z,37.10
2022-08-05T07:07:55.953Z,37.07
2022-08-05T07:10:32.529Z,37.14
2022-08-05T07:13:46.372Z,37.56
2022-08-05T07:16:12.192Z,37.68
2022-08-05T07:18:47.921Z,37.93
2022-08-05T07:21:25.671Z,37.63
2022-08-05T07:23:53.555Z,37.77
2022-08-05T07:26:25.909Z,37.42
2022-08-05T07:28:59.764Z,37.68
2022-08-05T07:31:41.123Z,38.07
2022-08-05T07:34:08.325Z,38.00
2022-08-05T07:36:40.934Z,38.15
2022-08-05T07:39:24.696Z,37.64
2022-08-05T07:42:13.039Z,37.55
2022-08-05T07:44:21.595Z,37.65
2022-08-05T07:46:53.847Z,37.34
2022-08-05T07:49:26.303Z,37.39
2022-08-05T07:51:59.906Z,37.03
2022-08-05T07:54:33.867Z,37.49
2022-08-05T07:57:22.639Z,37.15
2022-08-05T07:59:41.508Z,37.20
2022-08-05T08:02:16.985Z,37.25
2022-08-05T08:04:49.860Z,36.41
2022-08-05T08:07:23.426Z,35.89
2022-08-05T08:10:00.164Z,35.49
2022-08-05T08:12:49.387Z,35.45
2022-08-05T08:15:15.456Z,35.21
2022-08-05T08:17:52.499Z,34.46
2022-08-05T08:20:43.944Z,34.52
2022-08-05T08:23:03.293Z,34.91
2022-08-05T08:26:00.145Z,34.97
2022-08-05T08:28:18.268Z,34.88
2022-08-05T08:30:47.418Z,34.87
2022-08-05T08:33:19.126Z,35.17
2022-08-05T08:36:03.616Z,34.75
2022-08-05T08:38:36.083Z,33.69
2022-08-05T08:41:01.480Z,34.31
2022-08-05T08:45:23.786Z,33.66
2022-08-05T08:46:10.038Z,33.55
2022-08-05T08:49:06.268Z,33.24
2022-08-05T08:52:01.746Z,34.13
2022-08-05T08:53:53.421Z,33.07
2022-08-05T08:56:27.079Z,33.30
2022-08-05T08:59:00.021Z,33.56
2022-08-05T09:01:33.790Z,32.97
2022-08-05T09:04:06.054Z,32.90
2022-08-05T09:06:39.891Z,32.47
2022-08-05T09:09:13.580Z,32.29
2022-08-05T09:11:52.731Z,32.04
2022-08-05T09:14:56.347Z,32.29
2022-08-05T09:16:53.592Z,32.36
2022-08-05T09:19:28.130Z,33.22
2022-08-05T09:22:23.368Z,32.26
2022-08-05T09:24:34.826Z,31.93
2022-08-05T09:27:09.993Z,31.76
2022-08-05T09:29:49.824Z,31.97
2022-08-05T09:32:51.841Z,32.19
2022-08-05T09:35:01.235Z,32.02
2022-08-05T09:38:12.173Z,32.01
2022-08-05T09:40:11.372Z,32.10
2022-08-05T09:42:44.350Z,32.14
2022-08-05T09:46:06.828Z,32.17
2022-08-05T09:47:55.920Z,32.09
2022-08-05T09:50:44.650Z,31.63
2022-08-05T09:53:23.147Z,31.27
2022-08-05T09:55:57.612Z,31.52
2022-08-05T09:58:21.172Z,30.65
2022-08-05T10:00:59.362Z,29.75
2022-08-05T10:03:56.583Z,29.25
2022-08-05T10:06:15.715Z,29.11
2022-08-05T10:08:50.307Z,29.28
2022-08-05T10:11:21.403Z,29.44
2022-08-05T10:13:55.702Z,28.81
2022-08-05T10:16:41.832Z,28.81
2022-08-05T10:19:13.581Z,28.58
2022-08-05T10:21:47.279Z,27.93
2022-08-05T10:24:21.563Z,27.69
2022-08-05T10:27:00.603Z,27.63
2022-08-05T10:30:41.478Z,27.15
2022-08-05T10:32:52.972Z,27.84
2022-08-05T10:34:42.751Z,27.64
2022-08-05T10:37:17.465Z,27.86
2022-08-05T10:40:03.469Z,27.85
2022-08-05T10:42:34.301Z,28.25
2022-08-05T10:45:21.343Z,28.44
2022-08-05T10:47:56.157Z,28.56
2022-08-05T10:50:20.429Z,28.50
2022-08-05T10:53:00.315Z,28.52
2022-08-05T10:55:38.629Z,28.23
2022-08-05T10:58:15.689Z,28.08
2022-08-05T11:00:55.224Z,28.31
2022-08-05T11:03:26.952Z,28.12
2022-08-05T11:06:15.651Z,28.21
2022-08-05T11:09:32.473Z,27.93
2022-08-05T11:11:56.396Z,27.95
2022-08-05T11:17:59.229Z,27.23
2022-08-05T11:20:17.375Z,27.08
2022-08-05T11:22:53.945Z,26.96
2022-08-05T11:26:05.848Z,26.97
2022-08-05T11:28:17.456Z,27.50
2022-08-05T11:31:05.911Z,26.99
2022-08-05T11:33:53.621Z,26.99
2022-08-05T11:36:53.014Z,26.84
2022-08-05T11:39:55.287Z,26.87
2022-08-05T11:42:28.917Z,26.65
2022-08-05T11:45:23.327Z,26.67
2022-08-05T11:47:48.950Z,26.63
2022-08-05T11:50:14.843Z,26.84
2022-08-05T11:52:53.162Z,26.94
2022-08-05T11:55:43.986Z,27.02
2022-08-05T11:58:20.452Z,27.14
2022-08-05T12:00:55.738Z,27.29
2022-08-05T12:03:31.963Z,27.26
2022-08-05T12:06:10.073Z,29.08
2022-08-05T12:08:53.952Z,28.00
2022-08-05T12:11:40.204Z,27.75
2022-08-05T12:14:11.340Z,27.12
2022-08-05T12:16:47.819Z,27.43
2022-08-05T12:20:26.324Z,27.50
2022-08-05T12:21:57.300Z,27.98
2022-08-05T12:24:30.367Z,28.15
2022-08-05T12:27:09.637Z,27.94
2022-08-05T12:29:38.865Z,27.66
2022-08-05T12:32:13.282Z,26.94
2022-08-05T12:34:46.334Z,26.91
2022-08-05T12:37:30.108Z,26.38
2022-08-05T12:39:54.669Z,26.51
2022-08-05T12:42:31.461Z,26.70
2022-08-05T12:45:09.879Z,26.11
2022-08-05T12:47:43.535Z,25.67
2022-08-05T12:50:17.309Z,25.84
2022-08-05T12:52:59.909Z,26.15
2022-08-05T12:55:32.477Z,25.83
2022-08-05T12:58:48.440Z,25.05
2022-08-05T13:02:05.907Z,23.90
2022-08-05T13:03:17.006Z,21.40
2022-08-05T13:05:50.040Z,18.06
2022-08-05T13:08:22.451Z,16.62
2022-08-05T13:11:02.147Z,14.81
2022-08-05T13:14:06.007Z,13.42
2022-08-05T13:16:17.255Z,12.59
2022-08-05T13:18:55.287Z,11.91
2022-08-05T13:21:38.022Z,11.03
2022-08-05T13:24:02.614Z,10.66
2022-08-05T13:26:36.703Z,10.41
2022-08-05T13:29:09.610Z,10.13
2022-08-05T13:32:04.570Z,10.24
2022-08-05T13:34:21.195Z,10.07
2022-08-05T13:36:51.840Z,10.19
2022-08-05T13:40:14.030Z,10.63
2022-08-05T13:41:59.211Z,10.34
2022-08-05T13:44:31.948Z,10.09
2022-08-05T13:47:09.104Z,9.65
2022-08-05T13:49:45.150Z,9.27
2022-08-05T13:52:20.096Z,9.40
2022-08-05T13:54:54.584Z,9.42
2022-08-05T13:57:27.160Z,9.48
2022-08-05T14:00:00.889Z,9.42
2022-08-05T14:02:35.958Z,9.26
2022-08-05T14:05:19.546Z,8.89
2022-08-05T14:08:05.549Z,9.26
2022-08-05T14:10:28.496Z,9.12
2022-08-05T14:12:59.532Z,9.12
2022-08-05T14:16:08.353Z,8.95
2022-08-05T14:18:15.142Z,8.95
2022-08-05T14:20:41.742Z,9.41
2022-08-05T14:23:24.522Z,9.59
2022-08-05T14:25:53.213Z,9.58
2022-08-05T14:28:26.134Z,9.01
2022-08-05T14:30:59.672Z,8.91
2022-08-05T14:33:59.435Z,8.73
2022-08-05T14:36:08.168Z,8.91
2022-08-05T14:38:39.998Z,8.49
2022-08-05T14:41:13.024Z,8.94
2022-08-05T14:43:57.778Z,8.48
2022-08-05T14:46:21.995Z,8.55
2022-08-05T14:48:54.579Z,8.63
2022-08-05T14:51:30.710Z,8.33
2022-08-05T14:54:27.171Z,8.40
2022-08-05T14:56:36.237Z,8.48
2022-08-05T14:59:09.960Z,8.40
2022-08-05T15:01:48.529Z,8.63
2022-08-05T15:04:16.181Z,8.74
2022-08-05T15:06:49.756Z,9.11
2022-08-05T15:09:52.405Z,9.19
2022-08-05T15:11:57.942Z,9.56
2022-08-05T15:14:34.658Z,9.86
2022-08-05T15:17:03.707Z,9.69
2022-08-05T15:19:36.533Z,10.71
2022-08-05T15:22:10.648Z,11.96
2022-08-05T15:24:44.447Z,13.53
2022-08-05T15:27:17.727Z,15.02
2022-08-05T15:29:51.712Z,16.25
2022-08-05T15:32:28.644Z,17.58
2022-08-05T15:35:09.836Z,18.78
2022-08-05T15:38:33.059Z,19.49
2022-08-05T15:41:00.148Z,18.37
2022-08-05T15:42:54.008Z,20.59
2022-08-05T15:45:16.280Z,21.38
2022-08-05T15:47:50.398Z,21.76
2022-08-05T15:50:25.226Z,22.24
2022-08-05T15:53:03.291Z,22.48
2022-08-05T15:56:03.204Z,22.34
2022-08-05T15:58:06.340Z,22.81
2022-08-05T16:00:50.293Z,23.28
2022-08-05T16:03:16.069Z,23.62
2022-08-05T16:05:52.560Z,24.21
2022-08-05T16:08:24.319Z,24.74
2022-08-05T16:10:59.640Z,25.05
2022-08-05T16:13:34.395Z,25.22
2022-08-05T16:16:07.167Z,25.54
2022-08-05T16:18:52.290Z,25.86
2022-08-05T16:21:17.435Z,25.97
2022-08-05T16:23:53.530Z,26.35
2022-08-05T16:26:26.479Z,26.70
2022-08-05T16:28:58.091Z,27.01
2022-08-05T16:31:56.397Z,27.35
2022-08-05T16:34:04.853Z,27.57
2022-08-05T16:36:38.352Z,27.86
2022-08-05T16:39:13.076Z,27.77
2022-08-05T16:42:14.139Z,28.11
2022-08-05T16:44:21.136Z,28.23
2022-08-05T16:46:55.833Z,28.43
2022-08-05T16:49:30.223Z,28.61
2022-08-05T16:52:03.087Z,28.77
2022-08-05T16:54:37.098Z,29.03
2022-08-05T16:57:21.931Z,29.18
2022-08-05T17:00:00.343Z,29.09
2022-08-05T17:02:20.699Z,28.17
2022-08-05T17:04:54.373Z,29.78
2022-08-05T17:07:38.866Z,29.83
2022-08-05T17:10:02.830Z,29.64
2022-08-05T17:12:51.599Z,29.89
2022-08-05T17:15:10.049Z,30.01
2022-08-05T17:17:44.482Z,30.20
2022-08-05T17:20:17.161Z,30.78
2022-08-05T17:22:55.509Z,30.95
2022-08-05T17:25:39.689Z,31.16
2022-08-05T17:27:59.492Z,31.43
2022-08-05T17:30:32.922Z,31.80
2022-08-05T17:33:08.523Z,31.96
2022-08-05T17:36:07.905Z,32.28
2022-08-05T17:38:18.229Z,32.69
2022-08-05T17:40:51.283Z,33.26
2022-08-05T17:43:47.086Z,33.52
2022-08-05T17:45:58.037Z,33.68
2022-08-05T17:48:32.523Z,33.92
2022-08-05T17:51:09.226Z,34.25
2022-08-05T17:53:39.098Z,34.14
2022-08-05T17:56:12.221Z,34.44
2022-08-05T17:58:44.630Z,34.44
2022-08-05T18:01:16.851Z,34.38
2022-08-05T18:04:03.674Z,34.69
2022-08-05T18:06:29.226Z,34.45
2022-08-05T18:08:58.761Z,34.44
2022-08-05T18:11:33.548Z,34.55
2022-08-05T18:14:13.284Z,34.74
2022-08-05T18:16:46.863Z,34.73
2022-08-05T18:19:16.093Z,35.53
2022-08-05T18:22:08.673Z,35.30
2022-08-05T18:24:22.678Z,35.64
2022-08-05T18:26:55.022Z,35.83
2022-08-05T18:29:40.759Z,36.17
2022-08-05T18:32:01.559Z,36.05
2022-08-05T18:34:41.100Z,36.15
2022-08-05T18:37:12.321Z,36.16
2022-08-05T18:40:34.157Z,36.56
2022-08-05T18:42:16.990Z,36.38
2022-08-05T18:44:55.591Z,36.38
2022-08-05T18:47:26.609Z,36.33
2022-08-05T18:50:15.751Z,37.01
2022-08-05T18:52:51.225Z,37.00
2022-08-05T18:55:23.283Z,37.39
2022-08-05T18:57:56.824Z,37.54
2022-08-05T19:00:30.513Z,37.71
2022-08-05T19:03:04.142Z,37.90
2022-08-05T19:06:12.092Z,37.86
2022-08-05T19:08:13.775Z,38.12
2022-08-05T19:10:47.497Z,38.19
2022-08-05T19:13:20.023Z,38.31
2022-08-05T19:15:58.998Z,38.45
2022-08-05T19:18:29.004Z,38.42
2022-08-05T19:21:01.827Z,38.36
2022-08-05T19:24:06.902Z,38.36
2022-08-05T19:26:11.194Z,38.21
2022-08-05T19:28:43.652Z,38.15
2022-08-05T19:31:19.352Z,38.27
2022-08-05T19:33:56.819Z,38.49
2022-08-05T19:36:24.879Z,38.35
2022-08-05T19:39:01.542Z,38.41
2022-08-05T19:41:58.360Z,38.34
2022-08-05T19:44:13.021Z,38.40
2022-08-05T19:46:40.795Z,38.36
2022-08-05T19:49:16.929Z,38.66
2022-08-05T19:52:08.629Z,38.51
2022-08-05T19:54:29.434Z,38.76
2022-08-05T19:56:56.321Z,38.72
2022-08-05T19:59:59.629Z,38.93
2022-08-05T20:02:02.736Z,39.18
2022-08-05T20:04:35.253Z,39.57
2022-08-05T20:07:13.015Z,39.41
2022-08-05T20:09:54.749Z,39.32
2022-08-05T20:12:15.612Z,39.76
2022-08-05T20:14:49.131Z,38.49
2022-08-05T20:17:24.016Z,39.41
2022-08-05T20:20:00.907Z,39.53
2022-08-05T20:22:33.344Z,39.43
2022-08-05T20:25:05.682Z,39.88
2022-08-05T20:27:42.113Z,39.67
2022-08-05T20:30:13.172Z,38.20
2022-08-05T20:32:45.648Z,39.88
2022-08-05T20:35:18.232Z,39.80
2022-08-05T20:38:06.146Z,39.79
2022-08-05T20:40:25.812Z,40.16
2022-08-05T20:43:00.152Z,40.33
2022-08-05T20:45:55.854Z,40.29
2022-08-05T20:48:06.472Z,40.55
2022-08-05T20:50:42.579Z,38.89
2022-08-05T20:53:36.230Z,40.47
2022-08-05T20:55:54.947Z,40.81
2022-08-05T20:58:23.645Z,41.06
2022-08-05T21:00:57.426Z,41.11
2022-08-05T21:03:34.182Z,41.53
2022-08-05T21:06:05.204Z,42.07
2022-08-05T21:08:42.312Z,41.65
2022-08-05T21:12:07.741Z,42.00
2022-08-05T21:13:56.227Z,42.00
2022-08-05T21:16:22.280Z,42.24
2022-08-05T21:18:57.029Z,42.61
2022-08-05T21:21:39.670Z,42.55
2022-08-05T21:24:12.766Z,42.63
2022-08-05T21:26:47.377Z,43.06
2022-08-05T21:29:18.231Z,42.77
2022-08-05T21:31:51.216Z,42.51
2022-08-05T21:34:23.692Z,42.82
2022-08-05T21:36:56.575Z,43.07
2022-08-05T21:39:29.733Z,42.98
2022-08-05T21:42:02.727Z,43.06
2022-08-05T21:44:35.182Z,43.30
2022-08-05T21:47:17.644Z,43.38
2022-08-05T21:49:56.815Z,43.39
2022-08-05T21:52:26.720Z,43.65
2022-08-05T21:54:51.890Z,43.52
2022-08-05T21:57:32.575Z,43.51
2022-08-05T22:00:10.855Z,43.79
2022-08-05T22:02:33.411Z,43.91
2022-08-05T22:05:06.254Z,44.09
2022-08-05T22:07:58.855Z,44.02
2022-08-05T22:10:14.247Z,42.17
2022-08-05T22:12:50.615Z,44.20
2022-08-05T22:16:01.876Z,44.76
2022-08-05T22:17:59.887Z,44.84
2022-08-05T22:20:29.310Z,45.06
2022-08-05T22:23:21.478Z,45.31
2022-08-05T22:26:15.110Z,45.50
2022-08-05T22:28:47.837Z,45.77
2022-08-05T22:31:21.956Z,45.76
2022-08-05T22:33:55.908Z,45.89
2022-08-05T22:36:28.174Z,46.29
2022-08-05T22:39:09.182Z,46.28
2022-08-05T22:42:10.517Z,46.29
2022-08-05T22:44:11.993Z,46.38
2022-08-05T22:46:45.352Z,46.65
2022-08-05T22:49:45.991Z,46.68
2022-08-05T22:52:04.644Z,46.61
2022-08-05T22:54:28.543Z,46.93
2022-08-05T22:57:00.991Z,47.20
2022-08-05T22:59:46.370Z,46.95
2022-08-05T23:02:12.980Z,47.05
2022-08-05T23:04:51.625Z,47.07
2022-08-05T23:07:22.962Z,47.11
2022-08-05T23:10:01.765Z,47.25
2022-08-05T23:12:32.483Z,47.72
2022-08-05T23:15:08.577Z,47.55
2022-08-05T23:18:01.314Z,47.64
2022-08-05T23:20:17.804Z,47.81
2022-08-05T23:22:55.973Z,47.86
2022-08-05T23:25:53.364Z,47.85
2022-08-05T23:28:00.772Z,48.22
2022-08-05T23:30:32.900Z,46.13
2022-08-05T23:33:06.917Z,48.10
2022-08-05T23:35:40.835Z,48.26
2022-08-05T23:38:13.599Z,48.70
2022-08-05T23:40:49.988Z,48.47
2022-08-05T23:43:25.519Z,48.43
2022-08-05T23:45:55.941Z,48.44
2022-08-05T23:48:28.377Z,48.60
2022-08-05T23:51:01.203Z,48.69
2022-08-05T23:53:46.552Z,48.60
2022-08-05T23:56:09.605Z,48.92
2022-08-05T23:58:42.427Z,48.87
